createdAt,value
2018-10-19T00:01:15.163Z,29.90
2018-10-19T00:03:44.659Z,28.10
2018-10-19T00:06:14.192Z,26.80
2018-10-19T00:08:43.814Z,27.83
2018-10-19T00:11:13.359Z,26.83
2018-10-19T00:13:42.928Z,29.80
2018-10-19T00:16:12.487Z,29.70
2018-10-19T00:18:42.006Z,28.67
2018-10-19T00:21:11.558Z,30.53
2018-10-19T00:23:41.069Z,28.67
2018-10-19T00:26:10.542Z,29.10
2018-10-19T00:28:40.076Z,26.97
2018-10-19T00:31:09.598Z,26.80
2018-10-19T00:33:39.121Z,27.53
2018-10-19T00:36:08.624Z,29.30
2018-10-19T00:38:38.182Z,29.73
2018-10-19T00:41:07.757Z,28.80
2018-10-19T00:43:37.230Z,29.87
2018-10-19T00:46:06.828Z,28.87
2018-10-19T00:48:36.353Z,27.40
2018-10-19T00:51:06.071Z,26.73
2018-10-19T00:53:35.481Z,28.20
2018-10-19T00:56:05.032Z,28.53
2018-10-19T00:58:34.533Z,31.67
2018-10-19T01:01:04.064Z,29.07
2018-10-19T01:03:33.618Z,29.00
2018-10-19T01:06:03.127Z,29.17
2018-10-19T01:08:32.665Z,29.20
2018-10-19T01:11:02.208Z,28.43
2018-10-19T01:13:31.759Z,31.00
2018-10-19T01:16:01.280Z,29.33
2018-10-19T01:18:30.750Z,25.87
2018-10-19T01:21:00.292Z,27.20
2018-10-19T01:23:29.783Z,28.07
2018-10-19T01:25:59.249Z,28.90
2018-10-19T01:28:28.744Z,28.77
2018-10-19T01:30:58.273Z,26.97
2018-10-19T01:33:27.822Z,29.30
2018-10-19T01:35:57.387Z,28.90
2018-10-19T01:38:26.988Z,30.70
2018-10-19T01:40:56.548Z,29.20
2018-10-19T01:43:26.062Z,27.53
2018-10-19T01:45:58.464Z,27.43
2018-10-19T01:48:28.588Z,29.30
2018-10-19T01:50:58.749Z,30.00
2018-10-19T01:53:28.500Z,30.90
2018-10-19T01:55:57.998Z,28.43
2018-10-19T01:58:27.507Z,29.47
2018-10-19T02:00:57.010Z,29.20
2018-10-19T02:03:26.497Z,27.47
2018-10-19T02:05:56.019Z,27.47
2018-10-19T02:08:25.555Z,29.17
2018-10-19T02:10:55.166Z,28.77
2018-10-19T02:13:24.709Z,29.90
2018-10-19T02:15:54.197Z,28.63
2018-10-19T02:18:23.717Z,29.70
2018-10-19T02:20:53.233Z,30.80
2018-10-19T02:23:25.726Z,30.10
2018-10-19T02:25:55.287Z,28.23
2018-10-19T02:28:24.908Z,28.10
2018-10-19T02:30:54.424Z,28.57
2018-10-19T02:33:23.916Z,28.60
2018-10-19T02:35:53.408Z,27.77
2018-10-19T02:38:22.906Z,28.70
2018-10-19T02:40:52.440Z,30.00
2018-10-19T02:43:21.959Z,28.60
2018-10-19T02:45:51.501Z,28.13
2018-10-19T02:48:21.036Z,30.63
2018-10-19T02:50:50.536Z,30.00
2018-10-19T02:53:20.097Z,27.03
2018-10-19T02:55:49.579Z,28.90
2018-10-19T02:58:19.086Z,29.53
2018-10-19T03:00:48.600Z,29.37
2018-10-19T03:03:18.153Z,29.00
2018-10-19T03:05:47.688Z,27.50
2018-10-19T03:08:17.181Z,28.60
2018-10-19T03:10:46.669Z,31.07
2018-10-19T03:13:16.157Z,31.33
2018-10-19T03:15:45.661Z,27.60
2018-10-19T03:18:15.174Z,28.97
2018-10-19T03:20:44.695Z,29.87
2018-10-19T03:23:14.238Z,27.97
2018-10-19T03:25:43.731Z,30.87
2018-10-19T03:28:13.218Z,30.30
2018-10-19T03:30:42.706Z,28.17
2018-10-19T03:33:12.320Z,29.60
2018-10-19T03:35:41.936Z,31.10
2018-10-19T03:38:11.443Z,31.20
2018-10-19T03:40:41.010Z,28.47
2018-10-19T03:43:10.502Z,28.70
2018-10-19T03:45:40.001Z,28.90
2018-10-19T03:48:09.507Z,31.77
2018-10-19T03:50:39.210Z,29.40
2018-10-19T03:53:08.800Z,29.50
2018-10-19T03:55:38.225Z,30.00
2018-10-19T03:58:07.761Z,28.97
2018-10-19T04:00:37.273Z,29.70
2018-10-19T04:03:07.164Z,30.17
2018-10-19T04:05:36.670Z,29.67
2018-10-19T04:08:06.244Z,29.97
2018-10-19T04:10:35.742Z,29.30
2018-10-19T04:13:05.303Z,30.03
2018-10-19T04:15:34.819Z,32.93
2018-10-19T04:18:04.365Z,30.87
2018-10-19T04:20:33.909Z,31.17
2018-10-19T04:23:07.891Z,31.00
2018-10-19T04:25:38.425Z,31.67
2018-10-19T04:28:08.021Z,28.27
2018-10-19T04:30:38.346Z,32.93
2018-10-19T04:33:07.991Z,30.00
2018-10-19T04:35:37.445Z,28.90
2018-10-19T04:38:06.980Z,27.87
2018-10-19T04:40:36.460Z,29.73
2018-10-19T04:43:06.496Z,29.97
2018-10-19T04:45:35.989Z,29.73
2018-10-19T04:48:05.909Z,29.70
2018-10-19T04:50:35.454Z,29.90
2018-10-19T04:53:05.109Z,28.50
2018-10-19T04:55:34.520Z,29.13
2018-10-19T04:58:04.005Z,29.27
2018-10-19T05:00:33.478Z,30.70
2018-10-19T05:03:03.136Z,31.60
2018-10-19T05:05:32.696Z,34.40
2018-10-19T05:08:02.271Z,31.53
2018-10-19T05:10:31.774Z,30.17
2018-10-19T05:13:01.364Z,30.47
2018-10-19T05:15:30.935Z,30.40
2018-10-19T05:18:00.414Z,31.20
2018-10-19T05:20:30.705Z,31.10
2018-10-19T05:23:00.276Z,31.43
2018-10-19T05:25:29.821Z,30.27
2018-10-19T05:27:59.343Z,30.50
2018-10-19T05:30:28.847Z,31.27
2018-10-19T05:32:58.396Z,30.00
2018-10-19T05:35:27.909Z,28.83
2018-10-19T05:37:57.450Z,29.70
2018-10-19T05:40:26.936Z,29.90
2018-10-19T05:42:56.468Z,30.60
2018-10-19T05:45:25.965Z,29.50
2018-10-19T05:47:55.512Z,29.50
2018-10-19T05:50:25.047Z,31.00
2018-10-19T05:52:54.608Z,30.40
2018-10-19T05:55:24.122Z,29.73
2018-10-19T05:57:53.643Z,30.80
2018-10-19T06:00:23.194Z,32.07
2018-10-19T06:02:52.699Z,28.27
2018-10-19T06:05:22.206Z,30.53
2018-10-19T06:07:51.699Z,30.10
2018-10-19T06:10:21.319Z,29.03
2018-10-19T06:12:50.794Z,29.63
2018-10-19T06:15:20.291Z,30.83
2018-10-19T06:17:49.800Z,29.97
2018-10-19T06:20:19.322Z,28.20
2018-10-19T06:22:48.810Z,29.53
2018-10-19T06:25:18.297Z,30.97
2018-10-19T06:27:47.831Z,29.70
2018-10-19T06:30:17.320Z,29.57
2018-10-19T06:32:46.817Z,29.40
2018-10-19T06:35:16.408Z,32.37
2018-10-19T06:37:45.912Z,27.40
2018-10-19T06:40:15.455Z,29.43
2018-10-19T06:42:44.964Z,28.17
2018-10-19T06:45:14.506Z,29.27
2018-10-19T06:47:44.048Z,27.30
2018-10-19T06:50:13.624Z,28.37
2018-10-19T06:52:43.199Z,24.20
2018-10-19T06:55:16.244Z,26.00
2018-10-19T06:57:45.807Z,28.40
2018-10-19T07:00:16.219Z,25.87
2018-10-19T07:02:45.764Z,23.93
2018-10-19T07:05:15.381Z,25.87
2018-10-19T07:07:44.880Z,27.57
2018-10-19T07:10:14.454Z,24.70
2018-10-19T07:12:44.086Z,26.70
2018-10-19T07:15:13.723Z,26.23
2018-10-19T07:17:43.278Z,24.10
2018-10-19T07:20:12.837Z,30.30
2018-10-19T07:22:42.378Z,24.53
2018-10-19T07:25:11.900Z,23.43
2018-10-19T07:27:41.425Z,25.00
2018-10-19T07:30:10.948Z,25.50
2018-10-19T07:32:40.491Z,25.43
2018-10-19T07:35:10.197Z,24.00
2018-10-19T07:37:39.641Z,25.13
2018-10-19T07:40:09.186Z,23.43
2018-10-19T07:42:38.687Z,26.27
2018-10-19T07:45:08.432Z,25.80
2018-10-19T07:47:38.029Z,27.00
2018-10-19T07:50:08.466Z,23.50
2018-10-19T07:52:38.753Z,22.20
2018-10-19T07:55:09.513Z,24.03
2018-10-19T07:57:39.146Z,21.67
2018-10-19T08:00:10.114Z,20.60
2018-10-19T08:02:39.656Z,19.70
2018-10-19T08:05:09.851Z,20.70
2018-10-19T08:07:39.356Z,19.70
2018-10-19T08:10:10.013Z,20.40
2018-10-19T08:12:39.538Z,18.33
2018-10-19T08:15:09.811Z,19.93
2018-10-19T08:17:39.599Z,19.60
2018-10-19T08:20:10.195Z,18.20
2018-10-19T08:22:40.061Z,19.13
2018-10-19T08:25:09.622Z,17.73
2018-10-19T08:27:39.167Z,17.20
2018-10-19T08:30:08.727Z,17.03
2018-10-19T08:32:38.279Z,17.30
2018-10-19T08:35:11.748Z,16.47
2018-10-19T08:37:43.881Z,16.97
2018-10-19T08:40:14.926Z,16.30
2018-10-19T08:42:45.697Z,16.00
2018-10-19T08:45:16.847Z,17.97
2018-10-19T08:47:48.087Z,18.07
2018-10-19T08:50:20.605Z,18.17
2018-10-19T08:52:51.981Z,18.43
2018-10-19T08:55:23.005Z,21.23
2018-10-19T08:57:56.141Z,19.20
2018-10-19T09:00:27.103Z,26.60
2018-10-19T09:02:59.552Z,25.37
2018-10-19T09:05:30.393Z,22.37
2018-10-19T09:08:01.408Z,19.60
2018-10-19T09:10:39.006Z,19.70
2018-10-19T09:13:09.221Z,16.83
2018-10-19T09:15:39.687Z,23.13
2018-10-19T09:18:09.872Z,20.90
2018-10-19T09:20:41.255Z,17.90
2018-10-19T09:23:11.638Z,24.10
2018-10-19T09:25:42.607Z,20.37
2018-10-19T09:28:13.104Z,26.47
2018-10-19T09:30:43.393Z,23.10
2018-10-19T09:33:13.868Z,27.00
2018-10-19T09:35:44.082Z,29.90
2018-10-19T09:38:14.326Z,32.77
2018-10-19T09:40:44.359Z,33.40
2018-10-19T09:43:14.650Z,28.93
2018-10-19T09:45:45.000Z,30.20
2018-10-19T09:48:15.398Z,31.07
2018-10-19T09:50:45.569Z,30.70
2018-10-19T09:53:15.804Z,30.57
2018-10-19T09:55:45.911Z,33.67
2018-10-19T09:58:16.055Z,33.20
2018-10-19T10:00:51.137Z,32.53
2018-10-19T10:03:21.522Z,34.63
2018-10-19T10:05:51.669Z,36.63
2018-10-19T10:08:22.138Z,35.00
2018-10-19T10:10:52.380Z,37.90
2018-10-19T10:13:22.946Z,36.93
2018-10-19T10:15:53.429Z,36.80
2018-10-19T10:18:23.715Z,38.47
2018-10-19T10:20:54.021Z,38.33
2018-10-19T10:23:24.436Z,34.60
2018-10-19T10:25:54.526Z,36.90
2018-10-19T10:28:24.727Z,36.80
2018-10-19T10:30:59.515Z,41.97
2018-10-19T10:33:29.776Z,38.80
2018-10-19T10:36:00.212Z,36.57
2018-10-19T10:38:30.500Z,35.50
2018-10-19T10:41:01.261Z,37.83
2018-10-19T10:43:31.336Z,38.00
2018-10-19T10:46:01.689Z,36.17
2018-10-19T10:48:31.848Z,35.43
2018-10-19T10:51:01.941Z,33.27
2018-10-19T10:53:32.507Z,34.10
2018-10-19T10:56:02.813Z,37.43
2018-10-19T10:58:33.077Z,37.20
2018-10-19T11:01:03.159Z,35.17
2018-10-19T11:03:33.958Z,33.03
2018-10-19T11:06:04.259Z,32.20
2018-10-19T11:08:34.468Z,34.50
2018-10-19T11:11:10.869Z,34.60
2018-10-19T11:13:42.041Z,31.13
2018-10-19T11:16:13.274Z,31.47
2018-10-19T11:18:43.443Z,29.30
2018-10-19T11:21:13.707Z,35.70
2018-10-19T11:23:43.720Z,35.43
2018-10-19T11:26:14.189Z,36.53
2018-10-19T11:28:46.301Z,36.70
2018-10-19T11:31:16.003Z,35.47
2018-10-19T11:33:47.690Z,37.83
2018-10-19T11:36:17.506Z,33.30
2018-10-19T11:38:53.522Z,35.63
2018-10-19T11:41:30.395Z,31.47
2018-10-19T11:44:10.591Z,33.83
2018-10-19T11:46:50.289Z,29.60
2018-10-19T11:49:33.449Z,32.30
2018-10-19T11:52:12.854Z,34.33
2018-10-19T11:54:54.022Z,29.10
2018-10-19T11:57:34.723Z,28.87
2018-10-19T12:00:14.337Z,27.87
2018-10-19T12:02:55.029Z,27.77
2018-10-19T12:05:34.306Z,26.37
2018-10-19T12:08:15.599Z,29.73
2018-10-19T12:10:56.147Z,29.33
2018-10-19T12:13:35.895Z,30.73
2018-10-19T12:16:18.956Z,28.97
2018-10-19T12:19:00.908Z,25.77
2018-10-19T12:21:39.752Z,26.37
2018-10-19T12:24:20.095Z,23.27
2018-10-19T12:26:58.643Z,23.13
2018-10-19T12:29:42.146Z,23.73
2018-10-19T12:32:20.741Z,24.23
2018-10-19T12:34:59.764Z,24.13
2018-10-19T12:37:38.000Z,24.33
2018-10-19T12:40:17.596Z,26.30
2018-10-19T12:42:56.108Z,24.60
2018-10-19T12:46:47.851Z,22.93
2018-10-19T12:49:28.130Z,24.00
2018-10-19T12:52:06.668Z,23.27
2018-10-19T12:54:46.456Z,22.70
2018-10-19T12:57:25.529Z,22.93
2018-10-19T13:00:05.572Z,25.80
2018-10-19T13:02:43.877Z,23.30
2018-10-19T13:05:22.165Z,24.53
2018-10-19T13:08:00.561Z,22.30
2018-10-19T13:10:40.545Z,24.30
2018-10-19T13:13:24.106Z,25.83
2018-10-19T13:16:04.240Z,23.33
2018-10-19T13:18:42.753Z,26.10
2018-10-19T13:21:22.677Z,26.40
2018-10-19T13:24:01.174Z,25.33
2018-10-19T13:26:38.857Z,23.23
2018-10-19T13:29:18.891Z,24.07
2018-10-19T13:31:57.637Z,24.00
2018-10-19T13:34:36.603Z,23.73
2018-10-19T13:37:14.681Z,24.70
2018-10-19T13:39:54.383Z,24.47
2018-10-19T13:42:34.802Z,23.13
2018-10-19T13:45:13.273Z,23.47
2018-10-19T13:47:55.964Z,23.00
2018-10-19T13:50:39.563Z,23.47
2018-10-19T13:53:18.666Z,24.90
2018-10-19T13:55:57.457Z,23.60
2018-10-19T13:58:36.952Z,27.33
2018-10-19T14:01:16.602Z,24.37
2018-10-19T14:03:57.751Z,24.83
2018-10-19T14:06:40.208Z,25.03
2018-10-19T14:09:22.390Z,24.13
2018-10-19T14:12:00.636Z,23.47
2018-10-19T14:14:39.038Z,24.43
2018-10-19T14:17:18.550Z,23.37
2018-10-19T14:19:57.310Z,21.90
2018-10-19T14:22:36.969Z,25.60
2018-10-19T14:25:17.269Z,23.53
2018-10-19T14:27:57.224Z,24.43
2018-10-19T14:30:36.539Z,24.17
2018-10-19T14:33:17.687Z,23.83
2018-10-19T14:35:58.625Z,22.37
2018-10-19T14:38:39.208Z,24.73
2018-10-19T14:41:18.140Z,24.87
2018-10-19T14:43:57.845Z,24.40
2018-10-19T14:46:36.211Z,23.00
2018-10-19T14:49:14.433Z,24.80
2018-10-19T14:51:56.517Z,23.93
2018-10-19T14:54:38.920Z,24.20
2018-10-19T14:57:19.228Z,24.67
2018-10-19T14:59:57.652Z,23.90
2018-10-19T15:02:27.957Z,25.80
2018-10-19T15:04:57.628Z,25.27
2018-10-19T15:07:27.304Z,25.33
2018-10-19T15:09:57.097Z,22.57
2018-10-19T15:12:26.603Z,23.93
2018-10-19T15:14:56.283Z,23.23
2018-10-19T15:17:26.186Z,24.07
2018-10-19T15:19:55.886Z,24.47
2018-10-19T15:22:25.509Z,25.43
2018-10-19T15:24:55.123Z,26.33
2018-10-19T15:27:24.743Z,23.93
2018-10-19T15:29:54.383Z,24.40
2018-10-19T15:32:24.145Z,23.70
2018-10-19T15:34:53.910Z,24.83
2018-10-19T15:37:23.583Z,24.43
2018-10-19T15:39:53.243Z,23.83
2018-10-19T15:42:22.864Z,25.00
2018-10-19T15:44:52.628Z,25.23
2018-10-19T15:47:25.633Z,24.80
2018-10-19T15:49:57.026Z,26.30
2018-10-19T15:52:26.895Z,24.20
2018-10-19T15:54:56.501Z,24.80
2018-10-19T15:57:26.299Z,25.53
2018-10-19T15:59:55.969Z,26.23
2018-10-19T16:02:25.736Z,26.27
2018-10-19T16:04:55.465Z,26.03
2018-10-19T16:07:25.148Z,25.70
2018-10-19T16:09:54.784Z,26.73
2018-10-19T16:12:24.447Z,26.10
2018-10-19T16:14:54.138Z,24.97
2018-10-19T16:17:23.867Z,24.50
2018-10-19T16:19:53.559Z,26.23
2018-10-19T16:22:23.220Z,25.67
2018-10-19T16:24:52.870Z,24.67
2018-10-19T16:27:22.598Z,25.40
2018-10-19T16:29:52.215Z,24.17
2018-10-19T16:32:21.886Z,24.70
2018-10-19T16:34:51.660Z,24.60
2018-10-19T16:37:21.297Z,23.00
2018-10-19T16:39:51.255Z,26.60
2018-10-19T16:42:20.890Z,24.37
2018-10-19T16:44:50.534Z,24.67
2018-10-19T16:47:20.260Z,23.73
2018-10-19T16:49:49.907Z,25.47
2018-10-19T16:52:19.644Z,24.60
2018-10-19T16:54:49.345Z,25.10
2018-10-19T16:57:18.981Z,25.83
2018-10-19T16:59:48.610Z,25.53
2018-10-19T17:02:18.273Z,24.90
2018-10-19T17:04:49.939Z,27.20
2018-10-19T17:07:19.641Z,24.87
2018-10-19T17:09:50.648Z,25.13
2018-10-19T17:12:20.336Z,26.73
2018-10-19T17:14:50.077Z,26.00
2018-10-19T17:17:19.716Z,27.20
2018-10-19T17:19:49.389Z,26.23
2018-10-19T17:22:19.141Z,26.60
2018-10-19T17:24:48.834Z,27.03
2018-10-19T17:27:18.538Z,27.90
2018-10-19T17:29:48.168Z,31.33
2018-10-19T17:32:17.880Z,29.20
2018-10-19T17:34:47.550Z,31.07
2018-10-19T17:37:17.251Z,31.77
2018-10-19T17:39:46.970Z,30.80
2018-10-19T17:42:16.695Z,34.40
2018-10-19T17:44:46.482Z,34.47
2018-10-19T17:47:16.421Z,33.70
2018-10-19T17:49:46.151Z,34.70
2018-10-19T17:52:15.979Z,34.63
2018-10-19T17:54:45.710Z,35.10
2018-10-19T17:57:15.525Z,35.03
2018-10-19T17:59:45.216Z,36.60
2018-10-19T18:02:14.924Z,34.77
2018-10-19T18:04:44.586Z,33.77
2018-10-19T18:07:14.323Z,35.40
2018-10-19T18:09:44.056Z,35.90
2018-10-19T18:12:13.742Z,37.80
2018-10-19T18:14:43.659Z,35.67
2018-10-19T18:17:13.557Z,34.13
2018-10-19T18:19:43.432Z,37.53
2018-10-19T18:22:13.444Z,35.73
2018-10-19T18:24:42.930Z,37.03
2018-10-19T18:27:12.830Z,37.40
2018-10-19T18:29:42.510Z,36.67
2018-10-19T18:32:12.466Z,40.63
2018-10-19T18:34:42.471Z,37.03
2018-10-19T18:37:12.474Z,36.23
2018-10-19T18:39:42.243Z,38.00
2018-10-19T18:42:12.021Z,39.20
2018-10-19T18:44:41.948Z,39.00
2018-10-19T18:47:11.827Z,39.03
2018-10-19T18:49:41.611Z,35.20
2018-10-19T18:52:11.563Z,36.40
2018-10-19T18:54:41.866Z,36.27
2018-10-19T18:57:12.220Z,36.20
2018-10-19T18:59:42.440Z,37.70
2018-10-19T19:02:12.781Z,37.77
2018-10-19T19:04:43.090Z,36.73
2018-10-19T19:07:13.410Z,35.30
2018-10-19T19:09:48.016Z,36.37
2018-10-19T19:12:18.226Z,35.83
2018-10-19T19:14:48.597Z,35.03
2018-10-19T19:17:28.286Z,38.10
2018-10-19T19:20:32.143Z,35.07
2018-10-19T19:23:02.606Z,33.60
2018-10-19T19:25:37.616Z,35.93
2018-10-19T19:28:08.002Z,35.67
2018-10-19T19:30:38.026Z,34.83
2018-10-19T19:33:12.907Z,36.40
2018-10-19T19:35:42.619Z,36.97
2018-10-19T19:38:12.725Z,36.13
2018-10-19T19:40:47.753Z,37.20
2018-10-19T19:43:17.438Z,34.27
2018-10-19T19:45:47.107Z,37.57
2018-10-19T19:48:21.961Z,35.03
2018-10-19T19:50:51.857Z,37.37
2018-10-19T19:53:21.611Z,34.37
2018-10-19T19:55:51.414Z,37.93
2018-10-19T19:58:21.098Z,36.17
2018-10-19T20:00:50.817Z,37.40
2018-10-19T20:03:20.504Z,35.73
2018-10-19T20:05:50.196Z,37.33
2018-10-19T20:08:19.847Z,36.63
2018-10-19T20:10:49.529Z,35.70
2018-10-19T20:13:19.158Z,35.93
2018-10-19T20:15:48.807Z,35.60
2018-10-19T20:18:18.544Z,35.27
2018-10-19T20:20:48.154Z,34.70
2018-10-19T20:23:17.835Z,35.00
2018-10-19T20:25:47.550Z,33.60
2018-10-19T20:28:17.205Z,38.53
2018-10-19T20:30:46.943Z,38.07
2018-10-19T20:33:16.682Z,34.03
2018-10-19T20:35:46.376Z,36.20
2018-10-19T20:38:16.127Z,39.53
2018-10-19T20:40:45.822Z,35.83
2018-10-19T20:43:15.455Z,37.33
2018-10-19T20:45:45.170Z,39.30
2018-10-19T20:48:14.876Z,40.43
2018-10-19T20:50:44.493Z,37.17
2018-10-19T20:53:14.194Z,39.80
2018-10-19T20:55:43.869Z,37.50
2018-10-19T20:58:13.526Z,37.70
2018-10-19T21:00:43.287Z,35.80
2018-10-19T21:03:13.865Z,35.83
2018-10-19T21:05:43.487Z,34.03
2018-10-19T21:08:13.120Z,39.00
2018-10-19T21:10:42.948Z,37.93
2018-10-19T21:13:12.610Z,38.30
2018-10-19T21:15:42.261Z,35.43
2018-10-19T21:18:11.896Z,40.27
2018-10-19T21:20:41.541Z,39.60
2018-10-19T21:23:11.135Z,36.73
2018-10-19T21:25:40.735Z,38.13
2018-10-19T21:28:10.348Z,37.43
2018-10-19T21:30:39.946Z,37.93
2018-10-19T21:33:09.539Z,39.73
2018-10-19T21:35:39.214Z,37.90
2018-10-19T21:38:08.908Z,38.60
2018-10-19T21:40:38.499Z,40.13
2018-10-19T21:43:08.095Z,39.00
2018-10-19T21:45:37.709Z,37.57
2018-10-19T21:48:07.372Z,36.33
2018-10-19T21:50:36.947Z,38.23
2018-10-19T21:53:06.697Z,37.77
2018-10-19T21:55:36.276Z,35.57
2018-10-19T21:58:06.112Z,36.90
2018-10-19T22:00:35.853Z,37.00
2018-10-19T22:03:05.450Z,39.67
2018-10-19T22:05:35.103Z,39.47
2018-10-19T22:08:04.738Z,37.07
2018-10-19T22:10:34.363Z,36.40
2018-10-19T22:13:04.033Z,37.70
2018-10-19T22:15:33.654Z,37.50
2018-10-19T22:18:03.271Z,37.00
2018-10-19T22:20:32.881Z,35.30
2018-10-19T22:23:02.550Z,36.87
2018-10-19T22:25:32.104Z,38.40
2018-10-19T22:28:01.731Z,36.10
2018-10-19T22:30:31.324Z,40.00
2018-10-19T22:33:00.920Z,39.13
2018-10-19T22:35:30.538Z,36.80
2018-10-19T22:38:00.205Z,38.50
2018-10-19T22:40:29.801Z,39.20
2018-10-19T22:42:59.448Z,40.07
2018-10-19T22:45:29.084Z,35.73
2018-10-19T22:47:58.718Z,38.20
2018-10-19T22:50:28.283Z,39.47
2018-10-19T22:52:57.905Z,38.80
2018-10-19T22:55:27.531Z,38.97
2018-10-19T22:57:57.209Z,39.10
2018-10-19T23:00:26.811Z,35.63
2018-10-19T23:02:56.427Z,36.40
2018-10-19T23:05:26.175Z,37.30
2018-10-19T23:07:55.852Z,38.90
2018-10-19T23:10:25.478Z,37.63
2018-10-19T23:12:55.153Z,37.40
2018-10-19T23:15:24.742Z,35.63
2018-10-19T23:17:54.371Z,37.07
2018-10-19T23:20:23.974Z,36.20
2018-10-19T23:22:53.683Z,39.80
2018-10-19T23:25:23.313Z,38.27
2018-10-19T23:27:52.888Z,34.77
2018-10-19T23:30:22.575Z,34.63
2018-10-19T23:32:52.231Z,40.47
2018-10-19T23:35:21.887Z,40.23
2018-10-19T23:37:51.473Z,38.33
2018-10-19T23:40:21.102Z,37.50
2018-10-19T23:42:50.739Z,37.07
2018-10-19T23:45:20.356Z,38.93
2018-10-19T23:47:49.918Z,37.17
2018-10-19T23:50:19.565Z,37.57
2018-10-19T23:52:49.198Z,37.47
2018-10-19T23:55:18.802Z,40.33
2018-10-19T23:57:48.391Z,39.60
